Time;durP1;ratioP1;P1;durP2;ratioP2;P2;SDS_P1;SDS_P2;PMS_P1;PMS_P2;Temp;Humidity;BMP_temperature;BMP_pressure;BME280_temperature;BME280_humidity;BME280_pressure;Samples;Min_cycle;Max_cycle;Signal;HPM_P1;HPM_P2
2023/03/19 00:01:14;;;;;;;;;;;;;;;5.29;72.99;92649.28;4967603;28;20016;-78
2023/03/19 00:03:40;;;;;;;;;;;;;;;5.26;73.10;92646.41;4966580;28;19918;-78
2023/03/19 00:06:06;;;;;;;;;;;;;;;5.25;72.74;92653.41;4968319;28;20491;-78
2023/03/19 00:08:31;;;;;;;;;;;;;;;5.22;73.38;92644.31;4967114;28;19914;-78
2023/03/19 00:10:57;;;;;;;;;;;;;;;5.21;73.14;92647.94;4967516;28;19968;-78
2023/03/19 00:13:22;;;;;;;;;;;;;;;5.19;73.47;92647.38;4968335;28;19973;-78
2023/03/19 00:15:47;;;;;;;;;;;;;;;5.16;73.65;92644.53;4965267;28;19922;-77
2023/03/19 00:18:13;;;;;;;;;;;;;;;5.15;73.55;92648.91;4965198;28;20008;-77
2023/03/19 00:20:38;;;;;;;;;;;;;;;5.14;73.96;92646.59;4966240;28;20012;-77
2023/03/19 00:23:05;;;;;;;;;;;;;;;5.12;74.08;92653.84;4967767;28;19985;-77
2023/03/19 00:25:31;;;;;;;;;;;;;;;5.11;73.96;92655.66;4967329;28;20386;-77
2023/03/19 00:27:56;;;;;;;;;;;;;;;5.09;73.90;92649.94;4966199;28;19977;-77
2023/03/19 00:30:23;;;;;;;;;;;;;;;5.10;73.90;92655.88;4964223;28;19935;-78
2023/03/19 00:32:48;;;;;;;;;;;;;;;5.08;74.47;92653.53;4982209;28;19922;-78
2023/03/19 00:35:13;;;;;;;;;;;;;;;5.07;74.41;92654.56;4969498;28;19914;-78
2023/03/19 00:37:39;;;;;;;;;;;;;;;5.07;75.02;92654.56;4966469;28;19925;-78
2023/03/19 00:40:06;;;;;;;;;;;;;;;5.06;74.83;92652.22;4967846;28;20376;-78
2023/03/19 00:42:32;;;;;;;;;;;;;;;5.06;75.00;92644.44;4949885;28;20380;-77
2023/03/19 00:44:58;;;;;;;;;;;;;;;5.05;75.59;92635.09;4967159;28;19917;-77
2023/03/19 00:47:23;;;;;;;;;;;;;;;5.01;76.14;92638.16;4961407;28;19914;-76
2023/03/19 00:49:49;;;;;;;;;;;;;;;5.01;75.81;92637.41;4961462;28;19922;-77
2023/03/19 00:52:15;;;;;;;;;;;;;;;5.01;75.59;92642.59;4963919;28;19981;-77
2023/03/19 00:54:40;;;;;;;;;;;;;;;5.00;75.84;92641.81;4962647;28;20327;-77
2023/03/19 00:57:06;;;;;;;;;;;;;;;5.01;75.42;92643.38;4966218;28;19956;-77
2023/03/19 00:59:31;;;;;;;;;;;;;;;5.04;75.98;92643.91;4962554;28;19919;-77
2023/03/19 01:01:57;;;;;;;;;;;;;;;5.05;75.79;92642.88;4962644;28;20407;-77
2023/03/19 01:04:22;;;;;;;;;;;;;;;5.05;75.93;92645.47;4964670;28;19922;-77
2023/03/19 01:06:48;;;;;;;;;;;;;;;5.04;76.39;92649.88;4963028;28;19918;-77
2023/03/19 01:09:13;;;;;;;;;;;;;;;5.06;76.50;92644.44;4964179;28;19915;-77
2023/03/19 01:11:39;;;;;;;;;;;;;;;5.05;76.66;92643.66;4964192;28;19918;-77
2023/03/19 01:14:05;;;;;;;;;;;;;;;5.04;76.78;92639.47;4980403;28;20364;-77
2023/03/19 01:16:30;;;;;;;;;;;;;;;5.05;76.96;92641.06;4963384;28;20001;-77
2023/03/19 01:18:57;;;;;;;;;;;;;;;5.04;77.47;92642.06;4962566;28;19918;-77
2023/03/19 01:21:22;;;;;;;;;;;;;;;5.05;77.35;92640.28;4964575;28;19926;-77
2023/03/19 01:23:50;;;;;;;;;;;;;;;5.03;77.83;92630.16;4970344;28;19918;-77
2023/03/19 01:26:16;;;;;;;;;;;;;;;5.03;77.82;92632.75;4961724;28;20005;-77
2023/03/19 01:28:43;;;;;;;;;;;;;;;5.02;77.20;92623.38;4988069;28;20839;-78
2023/03/19 01:31:08;;;;;;;;;;;;;;;5.04;76.81;92621.31;4957424;28;19918;-78
2023/03/19 01:33:53;;;;;;;;;;;;;;;5.05;77.37;92617.72;4962449;28;19948;-78
2023/03/19 01:36:40;;;;;;;;;;;;;;;5.07;78.18;92615.66;4961891;28;20328;-78
2023/03/19 01:39:06;;;;;;;;;;;;;;;5.07;77.86;92620.84;4962127;28;19973;-78
2023/03/19 01:41:31;;;;;;;;;;;;;;;5.08;77.96;92617.19;4978967;28;19922;-78
2023/03/19 01:44:23;;;;;;;;;;;;;;;5.05;78.26;92603.97;4961628;28;19919;-78
2023/03/19 01:47:13;;;;;;;;;;;;;;;5.09;78.28;92607.59;4962036;28;19925;-78
2023/03/19 01:49:58;;;;;;;;;;;;;;;5.08;78.64;92606.81;4967749;28;20313;-78
2023/03/19 01:52:26;;;;;;;;;;;;;;;5.08;78.66;92606.81;4963797;28;19941;-78
2023/03/19 01:55:06;;;;;;;;;;;;;;;5.07;78.92;92604.50;4960297;28;19918;-78
2023/03/19 01:57:58;;;;;;;;;;;;;;;5.06;78.88;92600.31;4961521;28;19922;-78
2023/03/19 02:00:53;;;;;;;;;;;;;;;5.06;78.63;92603.69;4957546;28;20019;-78
2023/03/19 02:03:20;;;;;;;;;;;;;;;5.06;78.88;92595.91;4977549;28;19950;-77
2023/03/19 02:06:00;;;;;;;;;;;;;;;5.08;78.65;92590.47;4952393;28;19925;-78
2023/03/19 02:08:26;;;;;;;;;;;;;;;5.06;78.33;92593.31;4966061;28;20289;-78
2023/03/19 02:10:54;;;;;;;;;;;;;;;5.06;78.75;92593.31;4962333;28;20372;-78
2023/03/19 02:13:21;;;;;;;;;;;;;;;5.07;79.05;92591.53;4968501;28;19918;-78
2023/03/19 02:15:48;;;;;;;;;;;;;;;5.06;79.06;92588.13;4962290;28;19918;-78
2023/03/19 02:18:14;;;;;;;;;;;;;;;5.04;78.96;92586.81;4964437;28;19913;-78
2023/03/19 02:20:59;;;;;;;;;;;;;;;5.01;79.22;92583.69;4949978;28;19917;-78
2023/03/19 02:23:26;;;;;;;;;;;;;;;5.01;79.30;92588.09;4964946;28;19936;-78
2023/03/19 02:26:15;;;;;;;;;;;;;;;5.00;78.90;92584.72;4967933;28;19915;-78
2023/03/19 02:28:42;;;;;;;;;;;;;;;4.99;78.61;92579.78;4962661;28;19936;-78
2023/03/19 02:31:10;;;;;;;;;;;;;;;4.99;79.25;92579.78;4960986;28;19977;-78
2023/03/19 02:33:36;;;;;;;;;;;;;;;5.01;79.25;92580.31;4964629;28;19921;-78
2023/03/19 02:36:04;;;;;;;;;;;;;;;5.00;79.42;92581.34;4978104;28;20292;-78
2023/03/19 02:38:31;;;;;;;;;;;;;;;4.99;79.64;92585.75;4962755;28;19913;-78
2023/03/19 02:40:59;;;;;;;;;;;;;;;5.00;79.41;92589.91;4961376;28;20303;-78
2023/03/19 02:43:26;;;;;;;;;;;;;;;5.00;78.73;92582.13;4980094;28;20001;-78
2023/03/19 02:45:52;;;;;;;;;;;;;;;5.03;79.06;92583.44;4962159;28;19943;-77
2023/03/19 02:48:17;;;;;;;;;;;;;;;5.04;78.94;92587.59;4979135;28;20066;-78
2023/03/19 02:50:43;;;;;;;;;;;;;;;5.06;78.80;92588.13;4959900;28;19918;-78
2023/03/19 02:53:09;;;;;;;;;;;;;;;5.07;78.09;92583.75;4967017;28;19926;-78
2023/03/19 02:55:34;;;;;;;;;;;;;;;5.08;78.88;92591.25;4964115;28;20284;-78
2023/03/19 02:57:59;;;;;;;;;;;;;;;5.10;78.99;92589.19;4961862;28;19952;-78
2023/03/19 03:00:25;;;;;;;;;;;;;;;5.11;78.57;92584.78;4965319;28;19928;-78
2023/03/19 03:02:50;;;;;;;;;;;;;;;5.11;79.63;92583.00;4960546;28;19926;-78
2023/03/19 03:05:16;;;;;;;;;;;;;;;5.11;79.99;92583.00;4964101;28;19949;-78
2023/03/19 03:07:44;;;;;;;;;;;;;;;5.11;80.58;92582.19;4961141;28;19919;-78
2023/03/19 03:10:10;;;;;;;;;;;;;;;5.11;80.49;92580.41;4961451;28;19942;-78
2023/03/19 03:12:37;;;;;;;;;;;;;;;5.14;80.59;92579.13;4961524;28;19918;-78
2023/03/19 03:15:03;;;;;;;;;;;;;;;5.14;80.58;92574.69;4964891;28;19914;-78
2023/03/19 03:17:29;;;;;;;;;;;;;;;5.15;80.44;92586.63;4966031;28;19922;-77
2023/03/19 03:19:54;;;;;;;;;;;;;;;5.16;81.09;92584.84;4961825;28;20001;-78
2023/03/19 03:22:20;;;;;;;;;;;;;;;5.17;81.04;92588.97;4961741;28;20335;-78
2023/03/19 03:24:46;;;;;;;;;;;;;;;5.17;80.96;92583.78;4961915;28;19918;-78
2023/03/19 03:27:11;;;;;;;;;;;;;;;5.17;80.73;92579.38;4962286;28;19957;-78
2023/03/19 03:29:37;;;;;;;;;;;;;;;5.17;81.83;92588.97;4962813;28;19965;-78
2023/03/19 03:32:02;;;;;;;;;;;;;;;5.16;82.08;92596.00;4974205;28;19921;-78
2023/03/19 03:34:28;;;;;;;;;;;;;;;5.15;81.85;92597.00;4967244;28;20050;-78
2023/03/19 03:36:55;;;;;;;;;;;;;;;5.14;82.25;92590.25;4962302;28;20017;-78
2023/03/19 03:39:20;;;;;;;;;;;;;;;5.14;82.11;92579.88;4963222;28;20005;-78
2023/03/19 03:41:46;;;;;;;;;;;;;;;5.15;82.12;92581.44;4964367;28;19922;-78
2023/03/19 03:44:12;;;;;;;;;;;;;;;5.14;82.47;92579.88;4960098;28;19923;-78
2023/03/19 03:46:39;;;;;;;;;;;;;;;5.15;82.13;92586.63;4962291;28;19922;-78
2023/03/19 03:49:05;;;;;;;;;;;;;;;5.15;82.40;92591.03;4983338;28;19918;-78
2023/03/19 03:51:31;;;;;;;;;;;;;;;5.12;82.42;92587.13;4961813;28;19918;-78
2023/03/19 03:53:57;;;;;;;;;;;;;;;5.13;82.19;92587.91;4961480;28;20893;-78
2023/03/19 03:56:22;;;;;;;;;;;;;;;5.12;81.95;92594.94;4962467;28;20331;-78
2023/03/19 03:58:48;;;;;;;;;;;;;;;5.11;81.56;92590.78;4959930;28;19959;-78
2023/03/19 04:01:17;;;;;;;;;;;;;;;5.11;81.42;92593.38;4964997;28;20377;-78
2023/03/19 04:03:46;;;;;;;;;;;;;;;5.10;81.34;92584.00;4975643;28;19918;-78
2023/03/19 04:06:13;;;;;;;;;;;;;;;5.11;80.88;92593.38;4981566;28;19922;-78
2023/03/19 04:08:39;;;;;;;;;;;;;;;5.12;80.43;92596.75;4966879;28;19922;-78
2023/03/19 04:11:08;;;;;;;;;;;;;;;5.11;80.54;92598.56;4972402;28;20292;-78
2023/03/19 04:13:35;;;;;;;;;;;;;;;5.10;80.78;92591.00;4966289;28;20404;-78
2023/03/19 04:16:03;;;;;;;;;;;;;;;5.07;81.13;92594.13;4964853;28;19925;-78
2023/03/19 04:18:28;;;;;;;;;;;;;;;5.05;80.89;92596.97;4964448;28;20261;-78
2023/03/19 04:20:54;;;;;;;;;;;;;;;5.03;80.08;92593.81;4968259;28;19919;-78
2023/03/19 04:23:19;;;;;;;;;;;;;;;5.02;80.71;92592.25;4964126;28;19918;-77
2023/03/19 04:25:45;;;;;;;;;;;;;;;5.00;80.52;92594.34;4965976;28;20385;-78
2023/03/19 04:28:11;;;;;;;;;;;;;;;4.97;81.26;92600.00;4966878;28;19918;-78
2023/03/19 04:30:36;;;;;;;;;;;;;;;4.95;81.43;92596.88;4972337;28;19924;-78
2023/03/19 04:33:03;;;;;;;;;;;;;;;4.93;81.17;92604.13;4948122;28;20513;-78
2023/03/19 04:35:30;;;;;;;;;;;;;;;4.90;81.62;92602.03;4966307;28;19922;-78
2023/03/19 04:37:55;;;;;;;;;;;;;;;4.85;82.23;92610.56;4981414;28;20268;-78
2023/03/19 04:40:21;;;;;;;;;;;;;;;4.83;81.91;92599.63;4981545;28;19977;-78
2023/03/19 04:42:48;;;;;;;;;;;;;;;4.81;81.94;92606.88;4981862;28;19928;-78
2023/03/19 04:45:28;;;;;;;;;;;;;;;4.79;81.30;92596.75;4963909;28;20392;-78
2023/03/19 04:47:53;;;;;;;;;;;;;;;4.80;81.39;92589.78;4966384;28;19957;-78
2023/03/19 04:50:19;;;;;;;;;;;;;;;4.80;81.57;92590.53;4979382;28;20609;-78
2023/03/19 04:52:45;;;;;;;;;;;;;;;4.83;81.64;92593.69;4964777;28;19918;-77
2023/03/19 04:55:11;;;;;;;;;;;;;;;4.81;81.22;92596.50;4986862;28;20391;-79
2023/03/19 04:57:55;;;;;;;;;;;;;;;4.79;81.07;92604.53;4965428;28;19985;-78
2023/03/19 05:00:26;;;;;;;;;;;;;;;4.79;81.21;92601.16;4967719;28;19918;-78
2023/03/19 05:02:52;;;;;;;;;;;;;;;4.78;81.30;92594.41;4964362;28;19945;-78
2023/03/19 05:05:17;;;;;;;;;;;;;;;4.78;81.03;92586.63;4966953;28;19926;-79
2023/03/19 05:07:43;;;;;;;;;;;;;;;4.78;81.38;92589.22;4965346;28;19914;-79
2023/03/19 05:10:10;;;;;;;;;;;;;;;4.77;81.34;92587.66;4965275;28;20017;-78
2023/03/19 05:12:36;;;;;;;;;;;;;;;4.75;81.81;92590.50;4989615;28;19918;-77
2023/03/19 05:15:04;;;;;;;;;;;;;;;4.72;81.79;92588.41;4965681;28;19921;-77
2023/03/19 05:17:36;;;;;;;;;;;;;;;4.70;81.55;92587.84;4977552;28;19970;-77
2023/03/19 05:20:18;;;;;;;;;;;;;;;4.69;81.24;92594.09;4963576;28;19918;-77
2023/03/19 05:22:52;;;;;;;;;;;;;;;4.65;80.83;92590.41;4963501;28;20065;-77
2023/03/19 05:25:21;;;;;;;;;;;;;;;4.64;81.07;92606.22;4964175;28;19926;-77
2023/03/19 05:27:46;;;;;;;;;;;;;;;4.61;81.15;92601.53;4962855;28;19925;-77
2023/03/19 05:30:18;;;;;;;;;;;;;;;4.56;81.99;92610.03;4964224;28;20467;-78
2023/03/19 05:32:49;;;;;;;;;;;;;;;4.52;81.93;92609.75;4969902;28;19933;-78
2023/03/19 05:35:36;;;;;;;;;;;;;;;4.49;82.34;92617.25;4964852;28;19941;-78
2023/03/19 05:38:04;;;;;;;;;;;;;;;4.49;83.22;92619.84;4984375;28;19992;-78
2023/03/19 05:40:31;;;;;;;;;;;;;;;4.46;82.47;92615.94;4964446;28;19914;-78
2023/03/19 05:43:00;;;;;;;;;;;;;;;4.46;82.45;92612.53;4969989;28;20246;-78
2023/03/19 05:45:28;;;;;;;;;;;;;;;4.46;82.39;92609.94;4965339;28;19918;-78
2023/03/19 05:47:57;;;;;;;;;;;;;;;4.44;82.18;92610.19;4963049;28;19918;-78
2023/03/19 05:50:23;;;;;;;;;;;;;;;4.47;82.18;92606.34;4959302;28;19918;-78
2023/03/19 05:53:08;;;;;;;;;;;;;;;4.49;82.11;92614.66;4961829;28;19941;-78
2023/03/19 05:55:37;;;;;;;;;;;;;;;4.51;82.14;92618.56;4963595;28;19929;-78
2023/03/19 05:58:06;;;;;;;;;;;;;;;4.56;82.43;92625.59;4963318;28;19918;-78
2023/03/19 06:00:32;;;;;;;;;;;;;;;4.60;82.57;92624.09;4963512;28;19932;-78
2023/03/19 06:02:58;;;;;;;;;;;;;;;4.69;82.39;92634.81;4985347;28;19919;-78
2023/03/19 06:05:39;;;;;;;;;;;;;;;4.82;82.04;92633.59;4962378;28;20467;-78
2023/03/19 06:08:44;;;;;;;;;;;;;;;5.09;81.05;92629.16;4934021;29;20319;-78
2023/03/19 06:11:23;;;;;;;;;;;;;;;5.64;79.45;92632.34;4918329;29;20377;-78
2023/03/19 06:14:01;;;;;;;;;;;;;;;6.28;77.31;92633.94;4949203;28;19918;-79
2023/03/19 06:16:27;;;;;;;;;;;;;;;6.90;74.33;92621.84;4962323;28;20428;-78
2023/03/19 06:18:53;;;;;;;;;;;;;;;7.55;71.94;92624.69;4966824;28;19986;-79
2023/03/19 06:21:19;;;;;;;;;;;;;;;8.07;67.24;92620.88;4963769;28;19926;-77
2023/03/19 06:23:46;;;;;;;;;;;;;;;8.54;65.88;92629.31;4963817;28;20447;-78
2023/03/19 06:26:16;;;;;;;;;;;;;;;9.04;64.22;92631.84;4966515;28;20360;-81
2023/03/19 06:28:47;;;;;;;;;;;;;;;9.25;62.23;92635.09;4972162;28;19918;-81
2023/03/19 06:31:14;;;;;;;;;;;;;;;8.93;62.70;92637.13;4969819;28;19926;-80
2023/03/19 06:33:53;;;;;;;;;;;;;;;8.50;64.25;92644.69;4968749;28;19956;-80
2023/03/19 06:36:20;;;;;;;;;;;;;;;8.21;65.04;92646.38;4970850;28;19936;-81
2023/03/19 06:38:46;;;;;;;;;;;;;;;7.90;65.37;92649.06;4981106;28;19918;-80
2023/03/19 06:41:13;;;;;;;;;;;;;;;7.62;66.55;92648.63;4964881;28;19929;-80
2023/03/19 06:43:40;;;;;;;;;;;;;;;7.32;67.13;92653.84;4964516;28;19922;-80
2023/03/19 06:46:07;;;;;;;;;;;;;;;7.11;68.25;92653.09;4965759;28;19968;-80
2023/03/19 06:48:33;;;;;;;;;;;;;;;6.92;68.89;92651.00;4966694;28;20262;-80
2023/03/19 06:50:58;;;;;;;;;;;;;;;6.78;70.41;92657.75;4962973;28;19914;-80
2023/03/19 06:53:24;;;;;;;;;;;;;;;6.77;71.03;92661.38;4965059;28;20307;-80
2023/03/19 06:55:50;;;;;;;;;;;;;;;7.34;70.69;92659.59;4962541;28;19930;-80
2023/03/19 06:58:16;;;;;;;;;;;;;;;8.81;67.87;92649.75;4965843;28;20000;-80
2023/03/19 07:00:41;;;;;;;;;;;;;;;10.03;61.75;92654.25;4966036;28;20352;-81
2023/03/19 07:03:07;;;;;;;;;;;;;;;11.11;58.15;92654.47;4964469;28;19929;-80
2023/03/19 07:05:33;;;;;;;;;;;;;;;12.05;53.50;92650.84;4964235;28;20348;-81
2023/03/19 07:07:58;;;;;;;;;;;;;;;12.71;51.76;92648.00;4965703;28;19968;-81
2023/03/19 07:10:24;;;;;;;;;;;;;;;13.39;48.98;92653.38;4961148;28;19956;-80
2023/03/19 07:12:49;;;;;;;;;;;;;;;14.22;47.27;92658.19;4968866;28;19965;-81
2023/03/19 07:15:16;;;;;;;;;;;;;;;14.81;42.69;92657.91;4963526;28;19923;-81
2023/03/19 07:17:44;;;;;;;;;;;;;;;14.99;43.19;92662.09;4964108;28;19939;-82
2023/03/19 07:20:10;;;;;;;;;;;;;;;15.08;43.67;92668.16;4967019;28;20008;-82
2023/03/19 07:22:36;;;;;;;;;;;;;;;14.56;45.19;92675.97;4960307;28;20014;-82
2023/03/19 07:25:01;;;;;;;;;;;;;;;14.17;44.68;92666.97;4971212;28;19933;-82
2023/03/19 07:27:28;;;;;;;;;;;;;;;13.37;46.18;92669.44;4965296;28;19965;-79
2023/03/19 07:29:54;;;;;;;;;;;;;;;12.97;47.01;92674.53;4965773;28;19937;-82
2023/03/19 07:32:21;;;;;;;;;;;;;;;12.92;47.41;92666.72;4966857;28;19918;-83
2023/03/19 07:34:46;;;;;;;;;;;;;;;12.73;47.41;92668.72;4971444;28;20052;-80
2023/03/19 07:37:12;;;;;;;;;;;;;;;12.25;48.80;92673.31;4968884;28;19964;-83
2023/03/19 07:39:38;;;;;;;;;;;;;;;12.28;48.64;92670.09;4970332;28;19920;-82
2023/03/19 07:42:03;;;;;;;;;;;;;;;11.63;50.83;92678.81;4969626;28;19953;-82
2023/03/19 07:44:29;;;;;;;;;;;;;;;11.32;51.94;92686.38;4982084;28;19980;-82
2023/03/19 07:46:55;;;;;;;;;;;;;;;11.40;53.22;92683.13;4971243;28;20287;-81
2023/03/19 07:49:22;;;;;;;;;;;;;;;11.32;52.64;92696.09;4986149;28;19917;-81
2023/03/19 07:51:47;;;;;;;;;;;;;;;11.08;54.05;92690.94;4969116;28;19914;-82
2023/03/19 07:54:13;;;;;;;;;;;;;;;11.10;54.16;92689.59;4970217;28;19930;-81
2023/03/19 07:56:38;;;;;;;;;;;;;;;11.28;53.54;92690.66;4974082;28;19926;-82
2023/03/19 07:59:04;;;;;;;;;;;;;;;11.40;53.25;92695.47;4967365;28;20379;-82
2023/03/19 08:01:31;;;;;;;;;;;;;;;11.01;54.03;92693.91;4973517;28;19932;-82
2023/03/19 08:03:56;;;;;;;;;;;;;;;11.05;51.96;92687.03;4970182;28;19914;-82
2023/03/19 08:06:22;;;;;;;;;;;;;;;11.35;51.96;92691.06;4967264;28;20300;-82
2023/03/19 08:08:49;;;;;;;;;;;;;;;11.50;50.60;92684.03;4976598;28;19958;-82
2023/03/19 08:11:14;;;;;;;;;;;;;;;11.46;51.61;92686.47;4978104;28;19917;-81
2023/03/19 08:13:41;;;;;;;;;;;;;;;11.20;52.33;92693.91;4961095;28;19918;-81
2023/03/19 08:16:07;;;;;;;;;;;;;;;11.06;53.60;92690.47;4973497;28;20287;-81
2023/03/19 08:18:33;;;;;;;;;;;;;;;10.75;51.06;92698.72;4971776;28;20434;-82
2023/03/19 08:20:58;;;;;;;;;;;;;;;10.91;51.12;92694.81;4952410;28;19918;-81
2023/03/19 08:23:23;;;;;;;;;;;;;;;10.75;53.77;92703.94;4987468;28;20647;-81
2023/03/19 08:25:50;;;;;;;;;;;;;;;10.68;53.48;92706.91;4988300;28;19969;-81
2023/03/19 08:28:16;;;;;;;;;;;;;;;10.66;54.17;92701.16;4975111;28;19937;-82
2023/03/19 08:30:42;;;;;;;;;;;;;;;10.61;53.19;92709.09;4972639;28;19926;-80
2023/03/19 08:33:07;;;;;;;;;;;;;;;10.71;54.40;92708.19;4972928;28;19921;-82
2023/03/19 08:35:33;;;;;;;;;;;;;;;10.74;53.93;92707.59;4973559;28;20368;-82
2023/03/19 08:37:58;;;;;;;;;;;;;;;10.90;52.51;92705.56;4970746;28;19924;-81
2023/03/19 08:40:24;;;;;;;;;;;;;;;11.43;52.80;92714.00;4966721;28;19921;-80
2023/03/19 08:42:49;;;;;;;;;;;;;;;11.47;51.08;92711.59;4962507;28;19933;-81
2023/03/19 08:45:15;;;;;;;;;;;;;;;11.58;50.59;92717.47;4965049;28;19922;-81
2023/03/19 08:47:42;;;;;;;;;;;;;;;11.76;50.08;92708.78;4973612;28;19918;-80
2023/03/19 08:50:07;;;;;;;;;;;;;;;11.88;49.42;92714.38;4976446;28;20009;-79
2023/03/19 08:52:33;;;;;;;;;;;;;;;11.93;49.48;92712.72;4974561;28;20399;-80
2023/03/19 08:54:58;;;;;;;;;;;;;;;11.95;49.91;92721.09;4972977;28;19926;-81
2023/03/19 08:57:24;;;;;;;;;;;;;;;11.86;49.21;92720.94;4976862;28;20241;-80
2023/03/19 08:59:51;;;;;;;;;;;;;;;11.80;49.99;92722.09;4965445;28;20000;-81
2023/03/19 09:02:16;;;;;;;;;;;;;;;11.64;51.70;92717.09;4964537;28;19918;-79
2023/03/19 09:04:42;;;;;;;;;;;;;;;11.88;51.31;92719.59;4963717;28;20298;-80
2023/03/19 09:07:11;;;;;;;;;;;;;;;11.69;51.32;92718.88;4977296;28;19918;-79
2023/03/19 09:09:37;;;;;;;;;;;;;;;12.00;50.31;92715.75;4977829;28;19968;-80
2023/03/19 09:12:03;;;;;;;;;;;;;;;12.12;49.81;92720.56;4976056;28;19914;-79
2023/03/19 09:14:28;;;;;;;;;;;;;;;11.88;50.56;92722.22;4971127;28;19940;-79
2023/03/19 09:16:54;;;;;;;;;;;;;;;12.06;50.97;92722.47;4987750;28;19923;-80
2023/03/19 09:19:20;;;;;;;;;;;;;;;12.01;50.32;92722.56;4963236;28;19918;-79
2023/03/19 09:21:45;;;;;;;;;;;;;;;12.03;49.65;92720.44;4971010;28;19961;-80
2023/03/19 09:24:10;;;;;;;;;;;;;;;12.33;51.00;92724.34;4974455;28;19917;-79
2023/03/19 09:26:36;;;;;;;;;;;;;;;12.51;50.07;92725.34;4971102;28;19918;-79
2023/03/19 09:29:02;;;;;;;;;;;;;;;12.76;48.94;92720.66;4974579;28;20431;-80
2023/03/19 09:31:28;;;;;;;;;;;;;;;12.54;48.37;92719.53;4972747;28;19928;-80
2023/03/19 09:33:53;;;;;;;;;;;;;;;12.48;47.63;92726.69;4974042;28;20328;-81
2023/03/19 09:36:19;;;;;;;;;;;;;;;12.48;48.11;92726.69;4974133;28;19949;-80
2023/03/19 09:38:45;;;;;;;;;;;;;;;12.23;48.79;92722.69;4974516;28;20364;-80
2023/03/19 09:41:13;;;;;;;;;;;;;;;12.04;48.12;92724.59;4975209;28;19918;-80
2023/03/19 09:43:48;;;;;;;;;;;;;;;12.18;49.04;92729.88;4988698;28;19910;-80
2023/03/19 09:46:17;;;;;;;;;;;;;;;12.14;49.17;92732.31;4977217;28;19914;-80
2023/03/19 09:48:47;;;;;;;;;;;;;;;12.33;47.93;92720.97;4968938;28;19910;-79
2023/03/19 09:51:24;;;;;;;;;;;;;;;12.05;49.23;92724.31;4974076;28;19918;-79
2023/03/19 09:54:03;;;;;;;;;;;;;;;11.77;50.39;92722.66;4973609;28;19921;-80
2023/03/19 09:56:30;;;;;;;;;;;;;;;11.79;50.48;92717.91;4958314;28;20428;-78
2023/03/19 09:58:55;;;;;;;;;;;;;;;12.01;50.21;92718.09;4965361;28;19925;-78
2023/03/19 10:01:34;;;;;;;;;;;;;;;12.15;50.44;92722.59;4972145;28;20308;-80
2023/03/19 10:04:08;;;;;;;;;;;;;;;11.74;51.27;92720.63;4971336;28;19982;-81
2023/03/19 10:06:34;;;;;;;;;;;;;;;11.63;50.71;92725.25;4978653;28;20017;-79
2023/03/19 10:09:18;;;;;;;;;;;;;;;11.38;51.31;92726.41;4966574;28;20017;-79
2023/03/19 10:11:52;;;;;;;;;;;;;;;11.70;50.09;92722.25;4975065;28;19953;-80
2023/03/19 10:14:23;;;;;;;;;;;;;;;11.79;52.25;92725.78;4973436;28;19914;-81
2023/03/19 10:16:51;;;;;;;;;;;;;;;11.85;50.46;92720.16;4966166;28;19969;-79
2023/03/19 10:19:22;;;;;;;;;;;;;;;11.95;50.95;92727.09;4966934;28;19921;-82
2023/03/19 10:21:52;;;;;;;;;;;;;;;11.93;51.01;92731.09;4965428;28;19918;-78
2023/03/19 10:24:21;;;;;;;;;;;;;;;11.84;51.68;92725.69;4970564;28;19953;-78
2023/03/19 10:26:47;;;;;;;;;;;;;;;12.08;49.73;92721.13;4969637;28;19919;-78
2023/03/19 10:29:19;;;;;;;;;;;;;;;11.95;51.82;92721.09;4969810;28;19918;-80
2023/03/19 10:31:54;;;;;;;;;;;;;;;12.04;50.99;92714.88;4973281;28;19997;-80
2023/03/19 10:34:34;;;;;;;;;;;;;;;12.16;49.61;92706.56;4972417;28;19918;-80
2023/03/19 10:37:26;;;;;;;;;;;;;;;12.39;50.32;92712.69;4972842;28;19968;-79
2023/03/19 10:39:54;;;;;;;;;;;;;;;12.61;49.58;92704.16;4984129;28;20009;-79
2023/03/19 10:42:20;;;;;;;;;;;;;;;12.38;49.59;92705.09;4973208;28;19976;-80
2023/03/19 10:44:51;;;;;;;;;;;;;;;12.42;50.23;92713.97;4970614;28;19918;-83
2023/03/19 10:47:18;;;;;;;;;;;;;;;12.26;50.21;92703.75;4966526;28;20438;-84
2023/03/19 10:49:44;;;;;;;;;;;;;;;12.02;51.38;92713.63;4973111;28;19960;-83
2023/03/19 10:52:29;;;;;;;;;;;;;;;11.95;51.32;92707.97;4968561;28;19914;-83
2023/03/19 10:55:01;;;;;;;;;;;;;;;11.81;51.85;92700.81;4970535;28;19986;-83
2023/03/19 10:57:27;;;;;;;;;;;;;;;11.60;51.34;92702.22;4968458;28;19921;-83
2023/03/19 10:59:53;;;;;;;;;;;;;;;11.50;51.97;92694.50;4967678;28;19922;-84
2023/03/19 11:02:22;;;;;;;;;;;;;;;11.47;52.59;92703.72;4961972;28;19926;-82
2023/03/19 11:04:47;;;;;;;;;;;;;;;11.55;52.58;92705.72;4962173;28;20253;-78
2023/03/19 11:07:16;;;;;;;;;;;;;;;11.31;52.24;92705.81;4963431;28;19926;-83
2023/03/19 11:09:44;;;;;;;;;;;;;;;11.43;52.61;92706.13;4962942;28;19914;-82
2023/03/19 11:12:19;;;;;;;;;;;;;;;11.16;53.83;92706.78;4965682;28;19915;-83
2023/03/19 11:14:46;;;;;;;;;;;;;;;11.45;53.07;92696.13;4975701;28;19981;-83
2023/03/19 11:17:17;;;;;;;;;;;;;;;11.57;52.48;92702.78;4969505;28;19918;-82
2023/03/19 11:19:51;;;;;;;;;;;;;;;11.67;51.68;92702.63;4974526;28;20388;-81
2023/03/19 11:22:31;;;;;;;;;;;;;;;11.48;52.64;92694.00;4976346;28;19980;-82
2023/03/19 11:25:01;;;;;;;;;;;;;;;11.47;53.33;92701.09;4974611;28;19929;-82
2023/03/19 11:27:28;;;;;;;;;;;;;;;11.62;53.48;92697.47;4972381;28;19960;-81
2023/03/19 11:29:54;;;;;;;;;;;;;;;11.44;53.33;92694.59;4976976;28;19973;-83
2023/03/19 11:32:39;;;;;;;;;;;;;;;11.39;53.91;92692.06;4974618;28;19922;-83
2023/03/19 11:35:08;;;;;;;;;;;;;;;11.40;54.12;92696.22;4972708;28;19921;-83
2023/03/19 11:37:53;;;;;;;;;;;;;;;11.54;53.43;92680.53;4981478;28;20385;-81
2023/03/19 11:40:39;;;;;;;;;;;;;;;11.31;55.25;92679.59;4978336;28;19953;-83
2023/03/19 11:43:05;;;;;;;;;;;;;;;11.13;55.95;92677.78;4972941;28;20245;-82
2023/03/19 11:45:46;;;;;;;;;;;;;;;11.10;54.20;92679.13;4974794;28;20001;-85
2023/03/19 11:48:15;;;;;;;;;;;;;;;11.16;54.75;92677.19;4989315;28;19922;-81
2023/03/19 11:50:56;;;;;;;;;;;;;;;11.17;54.89;92669.06;4993110;28;20561;-83
2023/03/19 11:53:22;;;;;;;;;;;;;;;11.05;57.25;92668.69;4985704;28;20380;-81
2023/03/19 11:56:06;;;;;;;;;;;;;;;10.99;57.24;92668.00;4969453;28;19925;-81
2023/03/19 11:58:41;;;;;;;;;;;;;;;10.92;54.65;92667.59;4973513;28;20311;-83
2023/03/19 12:01:19;;;;;;;;;;;;;;;10.81;57.88;92671.41;4974676;28;19918;-81
2023/03/19 12:03:53;;;;;;;;;;;;;;;10.89;56.81;92667.34;4975840;28;19914;-84
2023/03/19 12:06:34;;;;;;;;;;;;;;;10.84;57.48;92665.59;4992613;28;19917;-83
2023/03/19 12:09:23;;;;;;;;;;;;;;;10.67;58.00;92667.91;4976986;28;20362;-83
2023/03/19 12:12:01;;;;;;;;;;;;;;;10.71;58.14;92663.66;4969837;28;20009;-81
2023/03/19 12:14:53;;;;;;;;;;;;;;;10.72;58.03;92658.16;4972750;28;19918;-81
2023/03/19 12:17:37;;;;;;;;;;;;;;;10.59;57.75;92653.63;4976293;28;19920;-83
2023/03/19 12:20:26;;;;;;;;;;;;;;;10.64;58.12;92645.69;4975810;28;19914;-83
2023/03/19 12:22:57;;;;;;;;;;;;;;;10.50;58.00;92655.31;4960076;28;19949;-80
2023/03/19 12:25:41;;;;;;;;;;;;;;;10.52;58.48;92650.56;4974100;28;19929;-80
2023/03/19 12:28:12;;;;;;;;;;;;;;;10.50;58.43;92648.22;4969214;28;19933;-80
2023/03/19 12:30:43;;;;;;;;;;;;;;;10.57;55.88;92646.03;4975511;28;19921;-80
2023/03/19 12:33:13;;;;;;;;;;;;;;;10.45;55.51;92645.69;4968244;28;19930;-81
2023/03/19 12:35:39;;;;;;;;;;;;;;;10.52;55.26;92643.50;4971431;28;19914;-81
2023/03/19 12:38:08;;;;;;;;;;;;;;;10.37;56.59;92646.28;4995673;28;20000;-80
2023/03/19 12:40:33;;;;;;;;;;;;;;;10.44;57.40;92641.50;4976790;28;19949;-80
2023/03/19 12:43:01;;;;;;;;;;;;;;;10.55;59.08;92642.16;4968409;28;19922;-81
2023/03/19 12:45:27;;;;;;;;;;;;;;;10.64;60.35;92640.44;4969636;28;19975;-82
2023/03/19 12:48:15;;;;;;;;;;;;;;;10.60;60.04;92640.25;4972912;28;19957;-81
2023/03/19 12:50:43;;;;;;;;;;;;;;;10.65;60.26;92634.16;4975373;28;19915;-80
2023/03/19 12:53:15;;;;;;;;;;;;;;;10.59;60.20;92638.69;4988502;28;19914;-81
2023/03/19 12:55:47;;;;;;;;;;;;;;;10.66;60.25;92627.88;4977079;28;19918;-81
2023/03/19 12:58:19;;;;;;;;;;;;;;;10.66;61.46;92622.63;4967979;28;19914;-81
2023/03/19 13:00:54;;;;;;;;;;;;;;;10.66;59.84;92633.09;4972183;28;20021;-80
2023/03/19 13:03:40;;;;;;;;;;;;;;;10.63;60.86;92623.97;4974576;28;19945;-81